Time;durP1;ratioP1;P1;durP2;ratioP2;P2;SDS_P1;SDS_P2;PMS_P1;PMS_P2;Temp;Humidity;BMP_temperature;BMP_pressure;BME280_temperature;BME280_humidity;BME280_pressure;Samples;Min_cycle;Max_cycle;Signal;HPM_P1;HPM_P2
2022/06/04 00:01:47;;;;;;;9.87;9.07;;;;;;;17.73;100.00;100060.34;5025316;28;20227;-61
2022/06/04 00:04:14;;;;;;;10.13;9.20;;;;;;;17.59;100.00;100056.31;5035870;28;20756;-61
2022/06/04 00:06:40;;;;;;;11.10;10.10;;;;;;;17.49;100.00;100052.84;5031924;28;20208;-62
2022/06/04 00:09:07;;;;;;;11.03;10.03;;;;;;;17.44;100.00;100062.81;5033822;28;20606;-62
2022/06/04 00:17:00;;;;;;;13.10;11.87;;;;;;;17.27;100.00;100070.25;5053043;28;20714;-61
2022/06/04 00:19:25;;;;;;;12.17;10.87;;;;;;;17.20;100.00;100061.31;5051769;28;20178;-68
2022/06/04 00:21:51;;;;;;;12.07;10.97;;;;;;;17.13;100.00;100052.38;5057256;28;20224;-62
2022/06/04 00:24:17;;;;;;;12.10;11.10;;;;;;;17.06;100.00;100048.66;5054812;28;20169;-62
2022/06/04 00:26:44;;;;;;;13.93;11.07;;;;;;;16.94;100.00;100048.72;5052597;28;20488;-63
2022/06/04 00:29:09;;;;;;;12.63;11.53;;;;;;;16.91;100.00;100048.09;5053459;28;20260;-61
2022/06/04 00:31:36;;;;;;;16.37;14.70;;;;;;;16.98;100.00;100046.69;5041971;28;20272;-61
2022/06/04 00:34:05;;;;;;;13.17;11.53;;;;;;;16.85;100.00;100059.00;5048509;28;20235;-61
2022/06/04 00:36:32;;;;;;;11.73;10.57;;;;;;;16.85;100.00;100062.41;5051286;28;20227;-62
2022/06/04 00:38:58;;;;;;;11.87;10.87;;;;;;;16.81;100.00;100063.63;5051707;28;20231;-61
2022/06/04 00:41:30;;;;;;;13.07;11.37;;;;;;;16.77;100.00;100064.81;5041925;28;20228;-62
2022/06/04 00:43:57;;;;;;;12.40;11.30;;;;;;;16.58;100.00;100063.72;5047242;28;20246;-61
2022/06/04 00:46:41;;;;;;;13.60;12.40;;;;;;;16.50;100.00;100060.09;5047298;28;20261;-61
2022/06/04 00:49:07;;;;;;;11.90;10.80;;;;;;;16.61;100.00;100060.03;5031628;28;20200;-61
2022/06/04 00:51:33;;;;;;;13.10;12.00;;;;;;;16.61;100.00;100062.63;5034110;28;20335;-61
2022/06/04 00:54:00;;;;;;;12.57;11.43;;;;;;;16.56;100.00;100056.97;5036361;28;20182;-61
2022/06/04 00:56:34;;;;;;;12.90;11.77;;;;;;;16.45;100.00;100058.66;5030443;28;20178;-61
2022/06/04 00:59:19;;;;;;;12.63;11.50;;;;;;;16.41;100.00;100069.41;5031543;28;20177;-61
2022/06/04 01:02:24;;;;;;;13.27;11.90;;;;;;;16.44;100.00;100069.19;5024277;28;20787;-62
2022/06/04 01:05:12;;;;;;;12.37;11.27;;;;;;;16.50;100.00;100076.47;5009669;28;20259;-61
2022/06/04 01:07:43;;;;;;;12.17;11.00;;;;;;;16.45;100.00;100076.84;5030456;28;20182;-61
2022/06/04 01:10:23;;;;;;;13.03;11.83;;;;;;;16.41;100.00;100080.63;5029000;28;20193;-61
2022/06/04 01:13:16;;;;;;;12.90;11.80;;;;;;;16.27;100.00;100084.34;5046190;28;20264;-61
2022/06/04 01:16:17;;;;;;;13.80;12.60;;;;;;;16.18;100.00;100089.41;5050691;28;20185;-62
2022/06/04 01:19:10;;;;;;;13.87;12.47;;;;;;;16.17;100.00;100083.38;5050968;28;20227;-61
2022/06/04 01:21:53;;;;;;;14.90;13.40;;;;;;;16.12;100.00;100094.16;5040895;28;20225;-61
2022/06/04 01:24:35;;;;;;;14.70;13.20;;;;;;;16.14;100.00;100097.44;5049787;28;20222;-60
2022/06/04 01:27:06;;;;;;;16.47;14.83;;;;;;;16.06;100.00;100105.00;5032815;28;20598;-61
2022/06/04 01:29:46;;;;;;;16.23;14.80;;;;;;;16.05;100.00;100103.34;5052047;28;20178;-61
2022/06/04 01:32:40;;;;;;;15.20;13.80;;;;;;;15.99;100.00;100101.22;5026169;28;20232;-61
2022/06/04 01:35:05;;;;;;;16.33;14.80;;;;;;;16.04;100.00;100101.69;5045630;28;20185;-61
2022/06/04 01:37:38;;;;;;;16.67;15.17;;;;;;;16.01;100.00;100096.72;5051203;28;20666;-61
2022/06/04 01:42:55;;;;;;;16.57;14.97;;;;;;;16.07;100.00;100098.03;5051264;28;20185;-61
2022/06/04 01:45:24;;;;;;;16.90;15.17;;;;;;;16.14;100.00;100094.00;5031794;28;20688;-61
2022/06/04 01:47:51;;;;;;;17.67;15.97;;;;;;;16.14;100.00;100092.22;5043616;28;20184;-61
2022/06/04 01:50:23;;;;;;;17.63;16.13;;;;;;;16.04;100.00;100088.72;5035568;28;20273;-63
2022/06/04 01:52:50;;;;;;;16.47;14.77;;;;;;;16.00;100.00;100089.91;5030920;28;20178;-61
2022/06/04 01:55:23;;;;;;;15.70;14.30;;;;;;;15.88;100.00;100089.06;5047271;28;20178;-61
2022/06/04 01:57:58;;;;;;;17.90;16.30;;;;;;;15.84;100.00;100072.09;5046315;28;20642;-63
2022/06/04 02:00:37;;;;;;;17.53;15.83;;;;;;;15.71;100.00;100071.38;5021629;28;20253;-61
2022/06/04 02:03:30;;;;;;;17.47;15.70;;;;;;;15.70;100.00;100078.31;5035392;28;20617;-60
2022/06/04 02:06:21;;;;;;;16.47;14.87;;;;;;;15.71;100.00;100073.97;5030479;28;20182;-62
2022/06/04 02:08:54;;;;;;;15.10;13.80;;;;;;;15.74;100.00;100069.38;5044012;28;20238;-61
2022/06/04 02:11:22;;;;;;;16.67;15.17;;;;;;;15.69;100.00;100058.53;5051735;28;20284;-63
2022/06/04 02:13:50;;;;;;;17.43;15.80;;;;;;;15.72;100.00;100054.88;5051086;28;20180;-60
2022/06/04 02:16:24;;;;;;;19.80;17.67;;;;;;;15.64;100.00;100052.84;5049460;28;20233;-61
2022/06/04 02:18:50;;;;;;;22.43;18.37;;;;;;;15.63;100.00;100040.84;5050193;28;20191;-60
2022/06/04 02:21:18;;;;;;;19.90;17.97;;;;;;;15.55;100.00;100032.81;5032757;28;20237;-62
2022/06/04 02:23:45;;;;;;;19.30;17.40;;;;;;;15.52;100.00;100035.63;5050893;28;20327;-61
2022/06/04 02:26:11;;;;;;;19.63;17.73;;;;;;;15.52;100.00;100033.03;5050106;28;20177;-60
2022/06/04 02:28:36;;;;;;;21.43;19.07;;;;;;;15.49;100.00;100037.53;5033515;28;20184;-60
2022/06/04 02:31:17;;;;;;;20.03;18.23;;;;;;;15.45;100.00;100036.09;5040799;28;20229;-61
2022/06/04 02:33:56;;;;;;;21.67;19.60;;;;;;;15.38;100.00;100029.75;5050684;28;20196;-61
2022/06/04 02:36:49;;;;;;;20.60;18.60;;;;;;;15.33;100.00;100032.69;5051063;28;20189;-60
2022/06/04 02:39:31;;;;;;;20.87;18.83;;;;;;;15.31;100.00;100031.97;5049902;28;20552;-61
2022/06/04 02:42:06;;;;;;;20.30;18.30;;;;;;;15.33;100.00;100037.03;5027307;28;20312;-61
2022/06/04 02:44:35;;;;;;;21.70;19.00;;;;;;;15.39;100.00;100033.16;5036542;28;20351;-61
2022/06/04 02:47:39;;;;;;;19.47;17.67;;;;;;;15.24;100.00;100032.56;5029512;28;20197;-61
2022/06/04 02:50:14;;;;;;;19.43;17.50;;;;;;;15.29;100.00;100033.03;4979785;28;20231;-61
2022/06/04 02:52:40;;;;;;;19.37;17.37;;;;;;;15.38;100.00;100032.34;4973327;28;20438;-62
2022/06/04 02:55:11;;;;;;;19.43;17.60;;;;;;;15.25;100.00;100037.63;4973447;28;20190;-62
2022/06/04 02:57:41;;;;;;;20.37;18.27;;;;;;;15.28;100.00;100036.56;4988897;28;20275;-60
2022/06/04 03:00:12;;;;;;;20.33;17.97;;;;;;;15.23;100.00;100026.56;4953133;28;20600;-61
2022/06/04 03:02:38;;;;;;;19.10;17.27;;;;;;;15.35;100.00;100034.34;5004232;28;20221;-60
2022/06/04 03:05:11;;;;;;;19.37;17.53;;;;;;;15.27;100.00;100035.75;4991236;28;20662;-62
2022/06/04 03:07:43;;;;;;;19.97;17.40;;;;;;;15.26;100.00;100028.91;5008384;28;20249;-60
2022/06/04 03:10:14;;;;;;;18.37;16.67;;;;;;;15.26;100.00;100033.28;4998385;28;20278;-60
2022/06/04 03:12:39;;;;;;;17.47;15.67;;;;;;;15.24;100.00;100035.97;4978058;28;20669;-60
2022/06/04 03:15:06;;;;;;;18.60;16.73;;;;;;;15.27;100.00;100027.13;4982541;28;20269;-61
2022/06/04 03:17:31;;;;;;;18.13;16.43;;;;;;;15.29;100.00;100033.03;5008251;28;20229;-61
2022/06/04 03:19:57;;;;;;;19.60;17.60;;;;;;;15.27;100.00;100040.94;5011990;28;20654;-60
2022/06/04 03:22:22;;;;;;;17.70;15.90;;;;;;;15.30;100.00;100034.69;4998343;28;20227;-60
2022/06/04 03:24:48;;;;;;;17.63;15.83;;;;;;;15.26;100.00;100031.50;5027534;28;20268;-61
2022/06/04 03:27:13;;;;;;;19.07;17.13;;;;;;;15.27;100.00;100032.31;5033943;28;20237;-59
2022/06/04 03:29:38;;;;;;;20.07;16.23;;;;;;;15.30;100.00;100025.13;5034503;28;20241;-60
2022/06/04 03:32:04;;;;;;;19.00;16.97;;;;;;;15.32;100.00;100025.84;5018756;28;20233;-60
2022/06/04 03:34:29;;;;;;;19.03;17.13;;;;;;;15.37;100.00;100035.88;5034517;28;20170;-62
2022/06/04 03:36:54;;;;;;;18.47;16.77;;;;;;;15.37;100.00;100043.66;5033955;28;20548;-60
2022/06/04 03:39:20;;;;;;;19.03;17.07;;;;;;;15.39;100.00;100046.94;5034371;28;20174;-60
2022/06/04 03:41:45;;;;;;;19.67;17.67;;;;;;;15.37;100.00;100046.25;5036657;28;20340;-60
2022/06/04 03:44:10;;;;;;;17.43;15.83;;;;;;;15.31;100.00;100057.88;5047302;28;20180;-60
2022/06/04 03:46:37;;;;;;;17.40;15.80;;;;;;;15.13;100.00;100061.84;5045205;28;20677;-61
2022/06/04 03:49:03;;;;;;;17.73;16.00;;;;;;;15.14;100.00;100068.69;5032675;28;20236;-60
2022/06/04 03:51:29;;;;;;;17.57;15.93;;;;;;;15.12;100.00;100066.22;5025483;28;20637;-60
2022/06/04 03:53:55;;;;;;;18.83;16.90;;;;;;;15.06;100.00;100078.78;5032755;28;20171;-62
2022/06/04 03:56:20;;;;;;;18.57;16.90;;;;;;;15.11;100.00;100090.47;5033581;28;20228;-61
2022/06/04 03:58:45;;;;;;;18.20;16.50;;;;;;;15.35;100.00;100091.34;5036615;28;20173;-62
2022/06/04 04:01:14;;;;;;;18.17;16.43;;;;;;;15.53;100.00;100087.38;5035896;28;20239;-61
2022/06/04 04:03:39;;;;;;;18.67;16.87;;;;;;;15.62;100.00;100091.03;5033509;28;20177;-61
2022/06/04 04:06:04;;;;;;;19.43;17.53;;;;;;;15.74;100.00;100086.69;5033463;28;20259;-61
2022/06/04 04:08:30;;;;;;;17.87;16.17;;;;;;;15.83;100.00;100096.38;5043324;28;20231;-61
2022/06/04 04:10:55;;;;;;;19.03;17.20;;;;;;;15.77;100.00;100102.00;5042945;28;20622;-60
2022/06/04 04:13:21;;;;;;;17.87;16.17;;;;;;;15.89;100.00;100095.91;5047898;28;20184;-60
2022/06/04 04:15:47;;;;;;;18.20;16.43;;;;;;;16.02;100.00;100092.38;5033102;28;20183;-61
2022/06/04 04:18:12;;;;;;;17.40;15.70;;;;;;;16.09;100.00;100094.38;5031512;28;20197;-61
2022/06/04 04:20:41;;;;;;;18.93;17.03;;;;;;;16.16;100.00;100092.09;5032250;28;20233;-61
2022/06/04 04:23:08;;;;;;;17.47;15.67;;;;;;;16.18;100.00;100095.41;5041203;28;20197;-61
2022/06/04 04:25:35;;;;;;;17.10;15.63;;;;;;;16.26;100.00;100100.00;5042578;28;20656;-60
2022/06/04 04:28:01;;;;;;;19.03;16.17;;;;;;;16.26;100.00;100093.06;5032074;28;20178;-61
2022/06/04 04:30:29;;;;;;;18.03;16.33;;;;;;;16.33;100.00;100100.34;5024108;28;20240;-60
2022/06/04 04:32:56;;;;;;;17.17;15.43;;;;;;;16.66;100.00;100093.41;5032572;28;20178;-61
2022/06/04 04:35:24;;;;;;;15.70;14.17;;;;;;;16.95;100.00;100096.28;5032298;28;20178;-61
2022/06/04 04:37:50;;;;;;;16.13;14.63;;;;;;;17.32;100.00;100105.44;5032950;28;20228;-62
2022/06/04 04:40:18;;;;;;;14.40;13.17;;;;;;;17.45;100.00;100100.03;5023910;28;20645;-62
2022/06/04 04:42:44;;;;;;;13.47;12.27;;;;;;;17.82;100.00;100112.53;5046846;28;20239;-60
2022/06/04 04:45:11;;;;;;;12.97;11.67;;;;;;;17.93;100.00;100114.25;5031867;28;20226;-61
2022/06/04 04:47:40;;;;;;;13.60;12.30;;;;;;;18.14;100.00;100116.81;5046876;28;20290;-61
2022/06/04 04:50:10;;;;;;;12.23;11.23;;;;;;;18.36;100.00;100113.97;5042562;28;20379;-62
2022/06/04 04:52:36;;;;;;;11.50;10.50;;;;;;;18.36;100.00;100123.59;5067678;28;20511;-61
2022/06/04 04:55:01;;;;;;;10.07;9.13;;;;;;;18.50;100.00;100132.78;5053199;28;20169;-61
2022/06/04 04:57:26;;;;;;;11.40;10.40;;;;;;;18.62;100.00;100134.31;5040833;28;20204;-61
2022/06/04 04:59:52;;;;;;;11.33;10.33;;;;;;;18.76;100.00;100135.69;5038049;28;20271;-62
2022/06/04 05:02:17;;;;;;;10.30;9.40;;;;;;;18.87;100.00;100142.56;5039731;28;20225;-61
2022/06/04 05:04:42;;;;;;;10.73;9.63;;;;;;;19.00;100.00;100143.16;5033484;28;20213;-61
2022/06/04 05:07:11;;;;;;;9.50;8.73;;;;;;;19.07;100.00;100146.03;5048954;28;20184;-61
2022/06/04 05:09:39;;;;;;;9.37;8.47;;;;;;;19.12;100.00;100150.84;5052640;28;20172;-61
2022/06/04 05:12:08;;;;;;;9.77;8.87;;;;;;;19.25;100.00;100153.97;5027789;28;20237;-63
2022/06/04 05:14:34;;;;;;;9.37;8.57;;;;;;;19.45;100.00;100169.59;5038081;28;20531;-61
2022/06/04 05:16:59;;;;;;;8.57;7.87;;;;;;;19.60;100.00;100167.38;5030720;28;20249;-62
2022/06/04 05:19:24;;;;;;;11.17;8.13;;;;;;;19.87;100.00;100169.28;5050081;28;20169;-62
2022/06/04 05:21:53;;;;;;;9.03;8.13;;;;;;;19.88;100.00;100163.06;5040733;28;20233;-61
2022/06/04 05:24:26;;;;;;;8.27;7.37;;;;;;;20.06;100.00;100172.78;5052611;28;20177;-61
2022/06/04 05:26:52;;;;;;;7.83;7.10;;;;;;;20.51;100.00;100173.78;5047192;28;20236;-61
2022/06/04 05:29:18;;;;;;;7.00;6.40;;;;;;;20.72;99.12;100176.16;5031428;28;20204;-61
2022/06/04 05:31:45;;;;;;;6.73;6.20;;;;;;;20.89;97.58;100164.88;5010397;28;20340;-61
2022/06/04 05:34:11;;;;;;;7.57;6.87;;;;;;;20.85;95.56;100162.72;5032525;28;20198;-61
2022/06/04 05:36:37;;;;;;;6.67;6.13;;;;;;;20.38;97.28;100166.28;5030662;28;20648;-61
2022/06/04 05:39:05;;;;;;;7.23;6.63;;;;;;;20.08;100.00;100173.44;5031228;28;20178;-61
2022/06/04 05:41:30;;;;;;;8.23;5.77;;;;;;;20.09;100.00;100169.84;5011552;28;20704;-61
2022/06/04 05:43:56;;;;;;;6.80;6.10;;;;;;;19.78;100.00;100165.69;5040866;28;20227;-62
2022/06/04 05:46:22;;;;;;;5.93;5.33;;;;;;;19.73;100.00;100175.72;5046989;28;20178;-61
2022/06/04 05:48:48;;;;;;;5.70;5.20;;;;;;;20.27;100.00;100173.34;5032449;28;20182;-61
2022/06/04 05:51:18;;;;;;;5.83;5.13;;;;;;;20.56;99.57;100168.94;5031437;28;20309;-61
2022/06/04 05:53:44;;;;;;;6.20;4.43;;;;;;;20.37;98.85;100164.66;5031231;28;20182;-61
2022/06/04 05:56:15;;;;;;;4.70;4.00;;;;;;;20.03;100.00;100163.41;5050509;28;20177;-61
2022/06/04 05:58:41;;;;;;;5.17;3.77;;;;;;;20.05;100.00;100165.91;5039156;28;20625;-61
2022/06/04 06:01:07;;;;;;;5.20;4.03;;;;;;;20.45;98.57;100165.56;5023914;28;20279;-60
2022/06/04 06:03:32;;;;;;;4.90;4.50;;;;;;;20.29;98.27;100163.59;5038555;28;20620;-62
2022/06/04 06:05:58;;;;;;;4.77;4.33;;;;;;;20.43;97.49;100164.06;5051634;28;20169;-65
2022/06/04 06:08:24;;;;;;;5.03;4.60;;;;;;;20.00;99.91;100164.53;5051600;28;20232;-61
2022/06/04 06:10:49;;;;;;;4.90;4.50;;;;;;;19.82;100.00;100161.81;5036915;28;20237;-62
2022/06/04 06:13:15;;;;;;;7.10;5.10;;;;;;;20.57;99.12;100167.97;5047207;28;20559;-61
2022/06/04 06:15:40;;;;;;;5.47;4.97;;;;;;;21.49;92.95;100163.38;5037903;28;20182;-61
2022/06/04 06:18:07;;;;;;;7.20;6.23;;;;;;;22.26;85.91;100157.41;5051453;28;20184;-61
2022/06/04 06:20:33;;;;;;;8.87;6.20;;;;;;;22.36;81.90;100159.91;5038656;28;20312;-60
2022/06/04 06:22:59;;;;;;;6.57;5.97;;;;;;;22.81;80.61;100163.97;5037928;28;20193;-60
2022/06/04 06:25:25;;;;;;;6.50;5.80;;;;;;;22.80;79.83;100158.88;5043318;28;20189;-62
2022/06/04 06:27:51;;;;;;;6.03;5.43;;;;;;;22.63;80.56;100156.25;5029980;28;20232;-61
2022/06/04 06:30:16;;;;;;;6.53;6.03;;;;;;;22.34;81.10;100156.63;5023702;28;20182;-61
2022/06/04 06:32:42;;;;;;;7.57;5.90;;;;;;;22.24;83.06;100149.72;5030566;28;20268;-60
2022/06/04 06:35:10;;;;;;;7.37;5.43;;;;;;;22.11;82.73;100149.34;5030544;28;20178;-61
2022/06/04 06:37:36;;;;;;;5.90;5.30;;;;;;;22.62;80.88;100157.22;5031066;28;20188;-61
2022/06/04 06:40:07;;;;;;;7.23;5.60;;;;;;;22.58;79.21;100160.34;5020616;28;20192;-61
2022/06/04 06:42:33;;;;;;;6.90;5.37;;;;;;;22.28;80.60;100152.00;5030355;28;20205;-60
2022/06/04 06:44:58;;;;;;;7.03;6.17;;;;;;;21.60;85.59;100150.06;5031660;28;20194;-60
2022/06/04 06:47:24;;;;;;;6.43;5.83;;;;;;;21.42;87.34;100147.50;5044677;28;20204;-61
2022/06/04 06:49:49;;;;;;;6.77;5.67;;;;;;;21.09;90.62;100155.09;5051648;28;20189;-61
2022/06/04 06:52:16;;;;;;;7.10;6.50;;;;;;;21.01;92.17;100159.44;5048808;28;20221;-62
2022/06/04 06:54:42;;;;;;;6.87;6.27;;;;;;;21.09;92.18;100155.09;5035366;28;20222;-62
2022/06/04 06:57:10;;;;;;;6.60;6.07;;;;;;;21.19;91.99;100159.41;5038520;28;20519;-61
2022/06/04 06:59:43;;;;;;;6.80;5.93;;;;;;;21.26;90.34;100163.06;5033918;28;20253;-62
2022/06/04 07:02:09;;;;;;;8.37;6.03;;;;;;;21.16;91.54;100171.00;5029736;28;20228;-62
2022/06/04 07:04:34;;;;;;;6.60;6.07;;;;;;;20.72;95.87;100165.69;5055118;28;20522;-62
2022/06/04 07:07:01;;;;;;;6.93;6.33;;;;;;;20.94;95.70;100169.69;5053629;28;20177;-61
2022/06/04 07:09:32;;;;;;;9.07;6.87;;;;;;;21.15;93.28;100164.13;5053419;28;20173;-65
2022/06/04 07:11:58;;;;;;;7.53;6.83;;;;;;;21.16;93.56;100157.94;5030901;28;20253;-61
2022/06/04 07:14:27;;;;;;;7.20;5.90;;;;;;;21.07;94.96;100159.66;5038019;28;20185;-61
2022/06/04 07:16:54;;;;;;;11.27;6.70;;;;;;;20.74;98.11;100154.13;5026146;28;20342;-61
2022/06/04 07:19:21;;;;;;;8.87;6.67;;;;;;;20.91;98.09;100162.94;5033590;28;20182;-60
2022/06/04 07:21:48;;;;;;;6.93;6.17;;;;;;;21.17;96.89;100159.56;5037910;28;20229;-60
2022/06/04 07:24:14;;;;;;;7.87;7.07;;;;;;;21.08;95.96;100170.94;5036899;28;20165;-61
2022/06/04 07:26:40;;;;;;;11.93;6.73;;;;;;;21.15;96.35;100171.97;5053126;28;20196;-61
2022/06/04 07:29:06;;;;;;;10.57;6.30;;;;;;;21.59;93.22;100174.63;5053548;28;20188;-61
2022/06/04 07:31:31;;;;;;;7.90;5.60;;;;;;;21.57;93.27;100166.09;5011250;28;20234;-61
2022/06/04 07:33:58;;;;;;;6.93;5.87;;;;;;;21.83;91.04;100167.06;5044351;28;20181;-61
2022/06/04 07:36:44;;;;;;;7.00;4.83;;;;;;;22.28;86.63;100180.84;5054458;28;20185;-60
2022/06/04 07:39:11;;;;;;;4.50;4.17;;;;;;;22.93;80.84;100192.50;5049174;28;20619;-60
2022/06/04 07:41:40;;;;;;;4.93;3.70;;;;;;;24.23;75.56;100189.09;5036488;28;20233;-61
2022/06/04 07:44:07;;;;;;;4.43;3.50;;;;;;;26.41;62.11;100193.03;5043315;28;20195;-60
2022/06/04 07:46:32;;;;;;;3.95;3.63;;;;;;;27.16;56.44;100203.31;5047358;28;20181;-61
2022/06/04 07:49:03;;;;;;;3.60;3.30;;;;;;;27.04;55.46;100210.91;5034060;28;20170;-61
2022/06/04 07:51:35;;;;;;;5.72;3.25;;;;;;;28.39;50.87;100218.72;5043131;28;20715;-61
2022/06/04 07:54:02;;;;;;;3.28;3.08;;;;;;;27.80;51.70;100222.72;5048092;28;20185;-62
2022/06/04 07:56:28;;;;;;;3.92;3.53;;;;;;;27.86;50.45;100225.38;5052385;28;20640;-62
2022/06/04 07:58:53;;;;;;;3.70;3.40;;;;;;;26.33;56.71;100208.94;5045064;28;20226;-61
2022/06/04 08:01:22;;;;;;;5.22;3.08;;;;;;;25.25;62.42;100215.25;5023557;28;20642;-61
2022/06/04 08:03:50;;;;;;;3.53;3.22;;;;;;;26.56;59.23;100208.81;5033590;28;20629;-60
2022/06/04 08:06:17;;;;;;;3.58;3.28;;;;;;;28.18;49.96;100212.56;5032397;28;20633;-62
2022/06/04 08:08:47;;;;;;;3.75;3.13;;;;;;;27.97;50.12;100216.09;5034358;28;20208;-61
2022/06/04 08:11:31;;;;;;;3.97;3.30;;;;;;;27.03;54.41;100209.31;5026168;28;20236;-62
2022/06/04 08:14:16;;;;;;;3.30;2.97;;;;;;;26.44;56.03;100220.84;5044078;28;20205;-61
2022/06/04 08:16:45;;;;;;;6.80;3.83;;;;;;;27.13;54.17;100219.50;5048304;28;20619;-62
2022/06/04 08:19:11;;;;;;;4.57;3.28;;;;;;;26.29;56.86;100215.59;5051366;28;20193;-62
2022/06/04 08:21:38;;;;;;;4.63;3.00;;;;;;;26.20;58.39;100222.78;5044958;28;20386;-61
2022/06/04 08:24:04;;;;;;;3.20;2.70;;;;;;;24.98;62.63;100222.72;5051925;28;20546;-61
2022/06/04 08:26:30;;;;;;;3.20;2.90;;;;;;;26.24;56.41;100216.13;5035506;28;20346;-61
2022/06/04 08:28:56;;;;;;;3.00;2.70;;;;;;;27.13;50.63;100227.44;5033806;28;20178;-61
2022/06/04 08:31:21;;;;;;;2.72;2.50;;;;;;;28.42;47.19;100230.72;5033661;28;20229;-61
2022/06/04 08:33:47;;;;;;;2.60;2.25;;;;;;;29.90;43.65;100227.22;5038648;28;20175;-62
2022/06/04 08:36:14;;;;;;;3.20;2.90;;;;;;;29.16;44.09;100223.78;5031600;28;20272;-63
2022/06/04 08:38:40;;;;;;;5.47;2.75;;;;;;;29.22;44.19;100228.25;5031947;28;20209;-60
2022/06/04 08:41:18;;;;;;;2.88;2.67;;;;;;;29.95;41.44;100235.34;5031281;28;20242;-62
2022/06/04 08:44:01;;;;;;;7.13;2.30;;;;;;;29.88;41.66;100239.84;5038752;28;20170;-60
2022/06/04 08:46:53;;;;;;;2.75;2.03;;;;;;;28.56;43.97;100253.59;5045786;28;20201;-62
2022/06/04 08:49:27;;;;;;;2.88;2.67;;;;;;;27.97;45.37;100246.97;5030267;28;20281;-61
2022/06/04 08:51:53;;;;;;;3.10;2.90;;;;;;;27.70;44.74;100257.41;5020293;28;20232;-61
2022/06/04 08:59:56;;;;;;;4.20;2.30;;;;;;;26.89;47.98;100245.28;5053123;28;20208;-61
2022/06/04 09:02:33;;;;;;;2.33;2.08;;;;;;;27.31;47.58;100237.56;5041637;28;20244;-60
2022/06/04 09:05:12;;;;;;;2.95;2.38;;;;;;;27.76;45.64;100245.22;5053019;28;20185;-61
2022/06/04 09:07:44;;;;;;;2.00;1.90;;;;;;;27.55;45.30;100246.94;5050767;28;20173;-60
2022/06/04 09:10:23;;;;;;;2.53;2.33;;;;;;;27.51;44.91;100241.22;5042704;28;20198;-61
2022/06/04 09:12:59;;;;;;;4.40;2.60;;;;;;;27.56;45.50;100237.97;5038021;28;20209;-61
2022/06/04 09:15:31;;;;;;;2.45;1.77;;;;;;;27.41;45.05;100239.91;5052438;28;20192;-61
2022/06/04 09:18:01;;;;;;;2.20;2.00;;;;;;;26.71;46.80;100238.59;5050009;28;20292;-61
2022/06/04 09:20:43;;;;;;;3.03;2.65;;;;;;;25.94;52.15;100238.03;5040497;28;20711;-62
2022/06/04 09:23:11;;;;;;;2.50;2.30;;;;;;;25.81;53.89;100242.28;5039975;28;20201;-61
2022/06/04 09:25:43;;;;;;;2.78;2.33;;;;;;;25.92;51.69;100236.56;5040894;28;20193;-61
2022/06/04 09:28:32;;;;;;;3.38;2.28;;;;;;;25.86;52.86;100250.47;5031877;28;20185;-61
2022/06/04 09:31:20;;;;;;;2.47;2.22;;;;;;;25.18;53.08;100245.94;5023950;28;20237;-61
2022/06/04 09:33:56;;;;;;;2.42;2.22;;;;;;;25.47;53.73;100254.94;5037439;28;20182;-61
2022/06/04 09:36:29;;;;;;;2.55;2.35;;;;;;;25.62;53.22;100257.59;5030202;28;20181;-61
2022/06/04 09:39:25;;;;;;;3.05;2.30;;;;;;;26.03;52.00;100248.47;5030393;28;20197;-63
2022/06/04 09:41:57;;;;;;;3.70;2.10;;;;;;;25.99;51.11;100249.84;5035353;28;20235;-61
2022/06/04 09:44:24;;;;;;;2.72;2.35;;;;;;;25.55;51.98;100246.16;5042943;28;20614;-60
2022/06/04 09:47:06;;;;;;;3.38;1.98;;;;;;;25.34;52.21;100250.25;5042349;28;20188;-61
2022/06/04 09:49:37;;;;;;;3.78;1.83;;;;;;;25.44;52.71;100240.31;5050971;28;20208;-61
2022/06/04 09:52:23;;;;;;;2.30;2.10;;;;;;;25.32;50.96;100238.25;5026993;28;20312;-61
2022/06/04 09:54:55;;;;;;;2.78;2.55;;;;;;;25.54;51.04;100245.34;5050445;28;20185;-60
2022/06/04 09:57:35;;;;;;;2.40;2.22;;;;;;;26.59;49.67;100258.53;5049818;28;20201;-62
2022/06/04 10:00:01;;;;;;;3.85;2.83;;;;;;;26.52;49.33;100255.00;5050655;28;20174;-62
2022/06/04 10:02:27;;;;;;;3.63;2.60;;;;;;;25.97;51.51;100257.91;5040317;28;20228;-61
2022/06/04 10:05:06;;;;;;;2.63;2.42;;;;;;;25.70;52.12;100265.44;5051515;28;20181;-61
2022/06/04 10:07:38;;;;;;;8.05;2.65;;;;;;;26.27;50.25;100263.22;5050927;28;20184;-62
2022/06/04 10:10:37;;;;;;;4.18;2.67;;;;;;;26.52;48.66;100265.56;5044119;28;20537;-63
2022/06/04 10:16:17;;;;;;;4.60;2.50;;;;;;;26.42;47.38;100265.88;5051357;28;20370;-61
2022/06/04 10:19:12;;;;;;;2.88;2.65;;;;;;;27.04;45.87;100263.72;5050391;28;20200;-61
2022/06/04 10:21:40;;;;;;;2.53;2.30;;;;;;;27.72;45.62;100254.56;5040118;28;20233;-61
2022/06/04 10:24:27;;;;;;;3.80;2.20;;;;;;;28.10;44.19;100267.44;5047039;28;20181;-61
2022/06/04 10:27:28;;;;;;;2.53;2.33;;;;;;;27.94;45.68;100271.16;5030903;28;20261;-61
2022/06/04 10:30:03;;;;;;;4.38;2.67;;;;;;;28.62;43.67;100266.03;4993310;28;20184;-61
2022/06/04 10:33:02;;;;;;;3.35;3.00;;;;;;;29.67;40.44;100274.53;5004689;28;20267;-60
2022/06/04 10:35:43;;;;;;;1.90;1.80;;;;;;;32.08;37.64;100278.50;5019323;28;20202;-61
2022/06/04 10:38:21;;;;;;;2.20;2.10;;;;;;;32.50;35.26;100291.16;5033533;28;20193;-62
2022/06/04 10:41:26;;;;;;;3.20;2.13;;;;;;;30.25;38.56;100287.09;5020934;28;20612;-61
2022/06/04 10:44:04;;;;;;;3.38;2.50;;;;;;;28.87;41.69;100285.88;5037114;28;20188;-61
2022/06/04 10:46:41;;;;;;;3.05;2.15;;;;;;;27.30;46.43;100281.66;5054183;28;20193;-61
2022/06/04 10:49:31;;;;;;;4.88;2.30;;;;;;;27.20;46.73;100271.41;5035264;28;20617;-61
2022/06/04 10:52:04;;;;;;;2.35;2.20;;;;;;;27.33;45.97;100267.25;5023900;28;20233;-62
2022/06/04 10:54:39;;;;;;;2.35;2.15;;;;;;;27.37;47.55;100266.66;5035395;28;20186;-62
2022/06/04 10:57:16;;;;;;;3.03;2.83;;;;;;;27.49;46.07;100266.19;5033242;28;20274;-61
2022/06/04 10:59:50;;;;;;;2.70;2.50;;;;;;;27.37;45.86;100258.72;5034783;28;20231;-62
2022/06/04 11:02:40;;;;;;;2.33;2.08;;;;;;;27.78;44.45;100272.28;4998291;28;20237;-62
2022/06/04 11:05:14;;;;;;;3.58;2.42;;;;;;;26.89;45.31;100267.25;5034735;28;20174;-62
2022/06/04 11:07:53;;;;;;;3.00;2.15;;;;;;;26.62;46.00;100266.09;5032642;28;20200;-63
2022/06/04 11:10:23;;;;;;;4.07;2.53;;;;;;;26.25;48.80;100266.03;5022985;28;20182;-60
2022/06/04 11:13:14;;;;;;;3.63;2.50;;;;;;;26.57;48.42;100255.28;5034056;28;20718;-61
2022/06/04 11:15:50;;;;;;;3.58;2.40;;;;;;;26.80;46.55;100246.44;5039964;28;20238;-62
2022/06/04 11:18:23;;;;;;;2.85;2.65;;;;;;;26.66;46.64;100245.44;5042691;28;20184;-63
2022/06/04 11:21:19;;;;;;;3.25;2.70;;;;;;;26.37;48.25;100236.56;5039580;28;20588;-62
2022/06/04 11:24:11;;;;;;;2.60;2.40;;;;;;;25.75;49.80;100242.00;5048203;28;20201;-60
2022/06/04 11:27:02;;;;;;;2.60;2.40;;;;;;;25.91;49.63;100233.13;5034452;28;20186;-61
2022/06/04 11:29:28;;;;;;;3.45;2.70;;;;;;;25.99;47.80;100236.69;5033009;28;20612;-61
2022/06/04 11:32:19;;;;;;;2.35;2.13;;;;;;;25.48;47.13;100237.31;5002684;28;20842;-61
2022/06/04 11:35:14;;;;;;;2.55;2.35;;;;;;;25.07;50.89;100239.25;5049716;28;20285;-62
2022/06/04 11:37:45;;;;;;;2.28;2.08;;;;;;;25.16;49.20;100247.91;5032036;28;20197;-61
2022/06/04 11:40:48;;;;;;;5.05;2.72;;;;;;;25.18;50.74;100251.19;5024747;28;20268;-61
2022/06/04 11:43:26;;;;;;;2.58;2.38;;;;;;;25.53;47.62;100248.97;5050771;28;20239;-61
2022/06/04 11:46:07;;;;;;;2.08;1.98;;;;;;;25.65;46.84;100241.47;5052553;28;20329;-62
2022/06/04 11:48:54;;;;;;;2.05;1.85;;;;;;;26.31;45.41;100239.94;5052959;28;20170;-61
2022/06/04 11:51:38;;;;;;;3.33;2.60;;;;;;;26.61;46.53;100243.34;5045870;28;20370;-61
2022/06/04 11:54:15;;;;;;;2.72;1.75;;;;;;;26.80;41.72;100241.94;5057237;28;20269;-62